sensor_id;sensor_type;location;lat;lon;timestamp;temperature;humidity
9790;DHT22;4934;50.852;8.098;2023-04-01T00:00:59;8.60;99.90
9790;DHT22;4934;50.852;8.098;2023-04-01T00:03:26;8.70;99.90
9790;DHT22;4934;50.852;8.098;2023-04-01T00:05:56;8.70;99.90
9790;DHT22;4934;50.852;8.098;2023-04-01T00:08:22;8.70;99.90
9790;DHT22;4934;50.852;8.098;2023-04-01T00:10:48;8.60;99.90
9790;DHT22;4934;50.852;8.098;2023-04-01T00:13:14;8.60;99.90
9790;DHT22;4934;50.852;8.098;2023-04-01T00:15:40;8.60;99.90
9790;DHT22;4934;50.852;8.098;2023-04-01T00:18:06;8.50;99.90
9790;DHT22;4934;50.852;8.098;2023-04-01T00:20:32;8.50;99.90
9790;DHT22;4934;50.852;8.098;2023-04-01T00:22:57;8.50;99.90
9790;DHT22;4934;50.852;8.098;2023-04-01T00:25:23;8.50;99.90
9790;DHT22;4934;50.852;8.098;2023-04-01T00:27:49;8.50;99.90
9790;DHT22;4934;50.852;8.098;2023-04-01T00:30:18;8.50;99.90
9790;DHT22;4934;50.852;8.098;2023-04-01T00:32:44;8.50;99.90
9790;DHT22;4934;50.852;8.098;2023-04-01T00:35:10;8.40;99.90
9790;DHT22;4934;50.852;8.098;2023-04-01T00:37:36;8.40;99.90
9790;DHT22;4934;50.852;8.098;2023-04-01T00:40:04;8.40;99.90
9790;DHT22;4934;50.852;8.098;2023-04-01T00:42:30;8.50;99.90
9790;DHT22;4934;50.852;8.098;2023-04-01T00:44:56;8.50;99.90
9790;DHT22;4934;50.852;8.098;2023-04-01T00:47:23;8.50;99.90
9790;DHT22;4934;50.852;8.098;2023-04-01T00:49:51;8.50;99.90
9790;DHT22;4934;50.852;8.098;2023-04-01T00:52:21;8.50;99.90
9790;DHT22;4934;50.852;8.098;2023-04-01T00:54:51;8.40;99.90
9790;DHT22;4934;50.852;8.098;2023-04-01T00:57:31;8.40;99.90
9790;DHT22;4934;50.852;8.098;2023-04-01T00:59:58;8.40;99.90
9790;DHT22;4934;50.852;8.098;2023-04-01T01:02:24;8.30;99.90
9790;DHT22;4934;50.852;8.098;2023-04-01T01:04:50;8.40;99.90
9790;DHT22;4934;50.852;8.098;2023-04-01T01:10:19;8.40;99.90
9790;DHT22;4934;50.852;8.098;2023-04-01T01:13:15;8.40;99.90
9790;DHT22;4934;50.852;8.098;2023-04-01T01:15:58;8.30;99.90
9790;DHT22;4934;50.852;8.098;2023-04-01T01:18:35;8.40;99.90
9790;DHT22;4934;50.852;8.098;2023-04-01T01:23:56;8.30;99.90
9790;DHT22;4934;50.852;8.098;2023-04-01T01:37:13;8.20;99.90
9790;DHT22;4934;50.852;8.098;2023-04-01T01:39:42;8.10;99.90
9790;DHT22;4934;50.852;8.098;2023-04-01T01:42:11;8.20;99.90
9790;DHT22;4934;50.852;8.098;2023-04-01T01:44:38;8.20;99.90
9790;DHT22;4934;50.852;8.098;2023-04-01T01:47:05;8.30;99.90
9790;DHT22;4934;50.852;8.098;2023-04-01T01:49:32;8.30;99.90
9790;DHT22;4934;50.852;8.098;2023-04-01T01:51:59;8.30;99.90
9790;DHT22;4934;50.852;8.098;2023-04-01T01:54:25;8.20;99.90
9790;DHT22;4934;50.852;8.098;2023-04-01T01:56:55;8.20;99.90
9790;DHT22;4934;50.852;8.098;2023-04-01T02:02:48;8.10;99.90
9790;DHT22;4934;50.852;8.098;2023-04-01T02:05:19;8.10;99.90
9790;DHT22;4934;50.852;8.098;2023-04-01T02:07:51;8.10;99.90
9790;DHT22;4934;50.852;8.098;2023-04-01T02:10:22;8.20;99.90
9790;DHT22;4934;50.852;8.098;2023-04-01T02:12:50;8.20;99.90
9790;DHT22;4934;50.852;8.098;2023-04-01T02:15:20;8.10;99.90
9790;DHT22;4934;50.852;8.098;2023-04-01T02:17:47;8.10;99.90
9790;DHT22;4934;50.852;8.098;2023-04-01T02:20:20;8.10;99.90
9790;DHT22;4934;50.852;8.098;2023-04-01T02:22:50;8.10;99.90
9790;DHT22;4934;50.852;8.098;2023-04-01T02:25:23;8.20;99.90
9790;DHT22;4934;50.852;8.098;2023-04-01T02:27:49;8.10;99.90
9790;DHT22;4934;50.852;8.098;2023-04-01T02:30:16;8.10;99.90
9790;DHT22;4934;50.852;8.098;2023-04-01T02:32:42;8.10;99.90
9790;DHT22;4934;50.852;8.098;2023-04-01T02:35:13;8.10;99.90
9790;DHT22;4934;50.852;8.098;2023-04-01T02:37:39;8.10;99.90
9790;DHT22;4934;50.852;8.098;2023-04-01T02:40:10;8.10;99.90
9790;DHT22;4934;50.852;8.098;2023-04-01T02:42:36;8.00;99.90
9790;DHT22;4934;50.852;8.098;2023-04-01T02:45:02;8.20;99.90
9790;DHT22;4934;50.852;8.098;2023-04-01T02:47:28;8.10;99.90
9790;DHT22;4934;50.852;8.098;2023-04-01T02:49:55;8.10;99.90
9790;DHT22;4934;50.852;8.098;2023-04-01T02:52:28;8.20;99.90
9790;DHT22;4934;50.852;8.098;2023-04-01T02:54:55;8.10;99.90
9790;DHT22;4934;50.852;8.098;2023-04-01T02:57:21;8.10;99.90
9790;DHT22;4934;50.852;8.098;2023-04-01T02:59:47;8.10;99.90
9790;DHT22;4934;50.852;8.098;2023-04-01T03:02:13;8.20;99.90
9790;DHT22;4934;50.852;8.098;2023-04-01T03:04:39;8.20;99.90
9790;DHT22;4934;50.852;8.098;2023-04-01T03:07:05;8.10;99.90
9790;DHT22;4934;50.852;8.098;2023-04-01T03:09:30;8.10;99.90
9790;DHT22;4934;50.852;8.098;2023-04-01T03:12:06;8.10;99.90
9790;DHT22;4934;50.852;8.098;2023-04-01T03:14:31;8.10;99.90
9790;DHT22;4934;50.852;8.098;2023-04-01T03:16:57;8.10;99.90
9790;DHT22;4934;50.852;8.098;2023-04-01T03:19:22;8.00;99.90
9790;DHT22;4934;50.852;8.098;2023-04-01T03:21:48;8.00;99.90
9790;DHT22;4934;50.852;8.098;2023-04-01T03:24:13;8.10;99.90
9790;DHT22;4934;50.852;8.098;2023-04-01T03:26:39;8.10;99.90
9790;DHT22;4934;50.852;8.098;2023-04-01T03:29:05;8.10;99.90
9790;DHT22;4934;50.852;8.098;2023-04-01T03:31:31;8.10;99.90
9790;DHT22;4934;50.852;8.098;2023-04-01T03:33:56;8.10;99.90
9790;DHT22;4934;50.852;8.098;2023-04-01T03:36:22;8.00;99.90
9790;DHT22;4934;50.852;8.098;2023-04-01T03:38:48;8.10;99.90
9790;DHT22;4934;50.852;8.098;2023-04-01T03:41:15;8.10;99.90
9790;DHT22;4934;50.852;8.098;2023-04-01T03:43:42;8.10;99.90
9790;DHT22;4934;50.852;8.098;2023-04-01T03:46:08;8.00;99.90
9790;DHT22;4934;50.852;8.098;2023-04-01T03:48:33;8.00;99.90
9790;DHT22;4934;50.852;8.098;2023-04-01T03:50:59;8.00;99.90
9790;DHT22;4934;50.852;8.098;2023-04-01T03:53:24;8.00;99.90
9790;DHT22;4934;50.852;8.098;2023-04-01T03:55:50;8.00;99.90
9790;DHT22;4934;50.852;8.098;2023-04-01T03:58:19;8.00;99.90
9790;DHT22;4934;50.852;8.098;2023-04-01T04:00:45;8.10;99.90
9790;DHT22;4934;50.852;8.098;2023-04-01T04:03:11;8.00;99.90
9790;DHT22;4934;50.852;8.098;2023-04-01T04:05:36;8.00;99.90
9790;DHT22;4934;50.852;8.098;2023-04-01T04:08:02;8.10;99.90
9790;DHT22;4934;50.852;8.098;2023-04-01T04:10:29;8.00;99.90
9790;DHT22;4934;50.852;8.098;2023-04-01T04:12:55;7.90;99.90
9790;DHT22;4934;50.852;8.098;2023-04-01T04:15:21;7.90;99.90
9790;DHT22;4934;50.852;8.098;2023-04-01T04:17:47;8.00;99.90
9790;DHT22;4934;50.852;8.098;2023-04-01T04:20:13;7.90;99.90
9790;DHT22;4934;50.852;8.098;2023-04-01T04:22:39;7.90;99.90
9790;DHT22;4934;50.852;8.098;2023-04-01T04:25:06;7.90;99.90
9790;DHT22;4934;50.852;8.098;2023-04-01T04:27:32;7.90;99.90
9790;DHT22;4934;50.852;8.098;2023-04-01T04:29:57;7.90;99.90
9790;DHT22;4934;50.852;8.098;2023-04-01T04:32:23;7.90;99.90
9790;DHT22;4934;50.852;8.098;2023-04-01T04:34:49;7.80;99.90
9790;DHT22;4934;50.852;8.098;2023-04-01T04:37:14;7.90;99.90
9790;DHT22;4934;50.852;8.098;2023-04-01T04:39:40;7.90;99.90
9790;DHT22;4934;50.852;8.098;2023-04-01T04:42:06;7.80;99.90
9790;DHT22;4934;50.852;8.098;2023-04-01T04:44:31;7.80;99.90
9790;DHT22;4934;50.852;8.098;2023-04-01T04:46:59;7.90;99.90
9790;DHT22;4934;50.852;8.098;2023-04-01T04:49:25;7.90;99.90
9790;DHT22;4934;50.852;8.098;2023-04-01T04:51:50;7.90;99.90
9790;DHT22;4934;50.852;8.098;2023-04-01T04:54:17;7.80;99.90
9790;DHT22;4934;50.852;8.098;2023-04-01T04:56:45;7.80;99.90
9790;DHT22;4934;50.852;8.098;2023-04-01T04:59:10;7.90;99.90
9790;DHT22;4934;50.852;8.098;2023-04-01T05:01:38;7.90;99.90
9790;DHT22;4934;50.852;8.098;2023-04-01T05:04:04;7.90;99.90
9790;DHT22;4934;50.852;8.098;2023-04-01T05:06:30;7.80;99.90
9790;DHT22;4934;50.852;8.098;2023-04-01T05:08:56;7.80;99.90
9790;DHT22;4934;50.852;8.098;2023-04-01T05:11:22;7.80;99.90
9790;DHT22;4934;50.852;8.098;2023-04-01T05:13:48;7.90;99.90
9790;DHT22;4934;50.852;8.098;2023-04-01T05:16:19;7.90;99.90
9790;DHT22;4934;50.852;8.098;2023-04-01T05:18:45;7.80;99.90
9790;DHT22;4934;50.852;8.098;2023-04-01T05:21:12;7.90;99.90
9790;DHT22;4934;50.852;8.098;2023-04-01T05:23:38;7.90;99.90
9790;DHT22;4934;50.852;8.098;2023-04-01T05:26:09;7.90;99.90
9790;DHT22;4934;50.852;8.098;2023-04-01T05:28:34;7.90;99.90
9790;DHT22;4934;50.852;8.098;2023-04-01T05:31:02;7.90;99.90
9790;DHT22;4934;50.852;8.098;2023-04-01T05:33:28;7.90;99.90
9790;DHT22;4934;50.852;8.098;2023-04-01T05:35:54;7.90;99.90
9790;DHT22;4934;50.852;8.098;2023-04-01T05:38:19;7.90;99.90
9790;DHT22;4934;50.852;8.098;2023-04-01T05:40:45;7.90;99.90
9790;DHT22;4934;50.852;8.098;2023-04-01T05:43:11;7.90;99.90
9790;DHT22;4934;50.852;8.098;2023-04-01T05:45:37;8.00;99.90
9790;DHT22;4934;50.852;8.098;2023-04-01T05:48:03;7.90;99.90
9790;DHT22;4934;50.852;8.098;2023-04-01T05:50:28;8.00;99.90
9790;DHT22;4934;50.852;8.098;2023-04-01T05:52:54;8.10;99.90
9790;DHT22;4934;50.852;8.098;2023-04-01T05:55:20;8.10;99.90
9790;DHT22;4934;50.852;8.098;2023-04-01T05:57:46;8.10;99.90
9790;DHT22;4934;50.852;8.098;2023-04-01T06:00:14;8.20;99.90
9790;DHT22;4934;50.852;8.098;2023-04-01T06:02:39;8.20;99.90
9790;DHT22;4934;50.852;8.098;2023-04-01T06:05:18;8.10;99.90
9790;DHT22;4934;50.852;8.098;2023-04-01T06:07:44;8.10;99.90
9790;DHT22;4934;50.852;8.098;2023-04-01T06:10:14;8.10;99.90
9790;DHT22;4934;50.852;8.098;2023-04-01T06:12:51;8.10;99.90
9790;DHT22;4934;50.852;8.098;2023-04-01T06:15:44;8.20;99.90
9790;DHT22;4934;50.852;8.098;2023-04-01T06:24:14;8.20;99.90
9790;DHT22;4934;50.852;8.098;2023-04-01T06:27:40;8.10;99.90
9790;DHT22;4934;50.852;8.098;2023-04-01T06:32:39;8.30;99.90
9790;DHT22;4934;50.852;8.098;2023-04-01T06:40:43;8.40;99.90
9790;DHT22;4934;50.852;8.098;2023-04-01T06:51:31;8.60;99.90
9790;DHT22;4934;50.852;8.098;2023-04-01T06:54:18;8.70;99.90
9790;DHT22;4934;50.852;8.098;2023-04-01T06:56:48;8.70;99.90
9790;DHT22;4934;50.852;8.098;2023-04-01T06:59:25;8.80;99.90
9790;DHT22;4934;50.852;8.098;2023-04-01T07:01:55;8.80;99.90
9790;DHT22;4934;50.852;8.098;2023-04-01T07:04:37;8.90;99.90
9790;DHT22;4934;50.852;8.098;2023-04-01T07:07:12;8.90;99.90
9790;DHT22;4934;50.852;8.098;2023-04-01T07:09:41;8.90;99.90
9790;DHT22;4934;50.852;8.098;2023-04-01T07:14:53;8.90;99.90
9790;DHT22;4934;50.852;8.098;2023-04-01T07:17:23;8.90;99.90
9790;DHT22;4934;50.852;8.098;2023-04-01T07:20:11;9.00;99.90
9790;DHT22;4934;50.852;8.098;2023-04-01T07:22:44;9.00;99.90
9790;DHT22;4934;50.852;8.098;2023-04-01T07:27:42;8.90;99.90
9790;DHT22;4934;50.852;8.098;2023-04-01T07:30:15;9.00;99.90
9790;DHT22;4934;50.852;8.098;2023-04-01T07:35:23;9.00;99.90
9790;DHT22;4934;50.852;8.098;2023-04-01T07:40:48;9.10;99.90
9790;DHT22;4934;50.852;8.098;2023-04-01T07:49:08;9.10;99.90
9790;DHT22;4934;50.852;8.098;2023-04-01T07:51:50;9.20;99.90
9790;DHT22;4934;50.852;8.098;2023-04-01T07:57:50;9.40;99.90
9790;DHT22;4934;50.852;8.098;2023-04-01T08:03:20;9.60;99.90
9790;DHT22;4934;50.852;8.098;2023-04-01T08:05:57;9.60;99.90
9790;DHT22;4934;50.852;8.098;2023-04-01T08:08:45;9.60;99.90
9790;DHT22;4934;50.852;8.098;2023-04-01T08:14:35;9.70;99.90
9790;DHT22;4934;50.852;8.098;2023-04-01T08:17:16;9.70;99.90
9790;DHT22;4934;50.852;8.098;2023-04-01T08:20:10;9.90;99.90
9790;DHT22;4934;50.852;8.098;2023-04-01T08:22:46;9.90;99.90
9790;DHT22;4934;50.852;8.098;2023-04-01T08:25:25;10.00;99.90
9790;DHT22;4934;50.852;8.098;2023-04-01T08:33:00;10.10;99.90
9790;DHT22;4934;50.852;8.098;2023-04-01T08:35:34;10.20;99.90
9790;DHT22;4934;50.852;8.098;2023-04-01T08:38:11;10.20;99.90
9790;DHT22;4934;50.852;8.098;2023-04-01T08:49:06;10.50;99.90
9790;DHT22;4934;50.852;8.098;2023-04-01T08:51:41;10.70;99.90
9790;DHT22;4934;50.852;8.098;2023-04-01T08:54:40;10.60;99.90
9790;DHT22;4934;50.852;8.098;2023-04-01T08:57:31;10.60;99.90
9790;DHT22;4934;50.852;8.098;2023-04-01T09:00:23;10.60;99.90
9790;DHT22;4934;50.852;8.098;2023-04-01T09:03:16;10.70;99.90
9790;DHT22;4934;50.852;8.098;2023-04-01T09:06:24;10.70;99.90
9790;DHT22;4934;50.852;8.098;2023-04-01T09:09:16;10.70;99.90
9790;DHT22;4934;50.852;8.098;2023-04-01T09:37:51;11.20;99.90
9790;DHT22;4934;50.852;8.098;2023-04-01T09:51:04;11.10;99.90
9790;DHT22;4934;50.852;8.098;2023-04-01T09:53:45;11.20;99.90
9790;DHT22;4934;50.852;8.098;2023-04-01T10:13:46;11.20;99.90
9790;DHT22;4934;50.852;8.098;2023-04-01T10:16:22;11.30;99.90
9790;DHT22;4934;50.852;8.098;2023-04-01T10:19:02;11.20;99.90
9790;DHT22;4934;50.852;8.098;2023-04-01T10:21:56;11.00;99.90
9790;DHT22;4934;50.852;8.098;2023-04-01T10:24:52;10.80;99.90
9790;DHT22;4934;50.852;8.098;2023-04-01T10:27:56;10.80;99.90
9790;DHT22;4934;50.852;8.098;2023-04-01T10:36:50;10.70;99.90
9790;DHT22;4934;50.852;8.098;2023-04-01T10:48:01;10.60;99.90
9790;DHT22;4934;50.852;8.098;2023-04-01T10:53:38;10.50;99.90
9790;DHT22;4934;50.852;8.098;2023-04-01T11:10:49;10.80;99.90
9790;DHT22;4934;50.852;8.098;2023-04-01T11:16:33;10.90;99.90
9790;DHT22;4934;50.852;8.098;2023-04-01T11:22:24;11.10;99.90
9790;DHT22;4934;50.852;8.098;2023-04-01T11:33:19;10.90;99.90
9790;DHT22;4934;50.852;8.098;2023-04-01T11:38:45;10.80;99.90
9790;DHT22;4934;50.852;8.098;2023-04-01T11:41:43;10.70;99.90
9790;DHT22;4934;50.852;8.098;2023-04-01T11:44:26;10.90;99.90
9790;DHT22;4934;50.852;8.098;2023-04-01T11:52:21;11.00;99.90
9790;DHT22;4934;50.852;8.098;2023-04-01T12:06:05;11.20;99.90
9790;DHT22;4934;50.852;8.098;2023-04-01T12:14:21;11.30;99.90
9790;DHT22;4934;50.852;8.098;2023-04-01T12:20:24;11.30;99.90
9790;DHT22;4934;50.852;8.098;2023-04-01T12:34:19;10.70;99.90
9790;DHT22;4934;50.852;8.098;2023-04-01T12:42:55;10.60;99.90
9790;DHT22;4934;50.852;8.098;2023-04-01T12:45:29;10.80;99.90
9790;DHT22;4934;50.852;8.098;2023-04-01T12:56:42;10.60;99.90
9790;DHT22;4934;50.852;8.098;2023-04-01T12:59:43;10.60;99.90
9790;DHT22;4934;50.852;8.098;2023-04-01T13:07:36;10.80;99.90
9790;DHT22;4934;50.852;8.098;2023-04-01T13:15:41;10.60;99.90
9790;DHT22;4934;50.852;8.098;2023-04-01T13:21:01;10.50;99.90
9790;DHT22;4934;50.852;8.098;2023-04-01T13:26:36;10.30;99.90
9790;DHT22;4934;50.852;8.098;2023-04-01T13:37:47;10.80;99.90
9790;DHT22;4934;50.852;8.098;2023-04-01T13:43:10;10.90;99.90
9790;DHT22;4934;50.852;8.098;2023-04-01T13:51:28;11.30;99.90
9790;DHT22;4934;50.852;8.098;2023-04-01T14:00:03;11.20;99.90
9790;DHT22;4934;50.852;8.098;2023-04-01T14:11:17;10.80;99.90
9790;DHT22;4934;50.852;8.098;2023-04-01T14:13:59;10.80;99.90
9790;DHT22;4934;50.852;8.098;2023-04-01T14:17:08;10.70;99.90
9790;DHT22;4934;50.852;8.098;2023-04-01T14:20:18;10.70;99.90
9790;DHT22;4934;50.852;8.098;2023-04-01T14:23:04;10.60;99.90
9790;DHT22;4934;50.852;8.098;2023-04-01T14:25:52;10.50;99.90
9790;DHT22;4934;50.852;8.098;2023-04-01T14:34:18;10.60;99.90
9790;DHT22;4934;50.852;8.098;2023-04-01T14:50:27;10.70;99.90
9790;DHT22;4934;50.852;8.098;2023-04-01T14:53:11;10.80;99.90
9790;DHT22;4934;50.852;8.098;2023-04-01T14:58:17;10.60;99.90
9790;DHT22;4934;50.852;8.098;2023-04-01T15:06:40;10.70;99.90
9790;DHT22;4934;50.852;8.098;2023-04-01T15:12:36;10.80;99.90
9790;DHT22;4934;50.852;8.098;2023-04-01T15:17:58;10.80;99.90
9790;DHT22;4934;50.852;8.098;2023-04-01T15:23:16;10.80;99.90
9790;DHT22;4934;50.852;8.098;2023-04-01T15:26:08;10.70;99.90
9790;DHT22;4934;50.852;8.098;2023-04-01T15:32:00;10.60;99.90
9790;DHT22;4934;50.852;8.098;2023-04-01T15:40:01;10.90;99.90
9790;DHT22;4934;50.852;8.098;2023-04-01T15:45:25;10.80;99.90
9790;DHT22;4934;50.852;8.098;2023-04-01T16:07:09;10.50;99.90
9790;DHT22;4934;50.852;8.098;2023-04-01T16:12:21;10.50;99.90
9790;DHT22;4934;50.852;8.098;2023-04-01T16:22:39;10.30;99.90
9790;DHT22;4934;50.852;8.098;2023-04-01T16:25:30;10.30;99.90
9790;DHT22;4934;50.852;8.098;2023-04-01T16:28:23;10.30;99.90
9790;DHT22;4934;50.852;8.098;2023-04-01T16:31:09;10.20;99.90
9790;DHT22;4934;50.852;8.098;2023-04-01T16:34:19;10.20;99.90
9790;DHT22;4934;50.852;8.098;2023-04-01T16:39:34;10.00;99.90
9790;DHT22;4934;50.852;8.098;2023-04-01T16:47:35;10.00;99.90
9790;DHT22;4934;50.852;8.098;2023-04-01T16:50:14;10.00;99.90
9790;DHT22;4934;50.852;8.098;2023-04-01T16:53:14;10.00;99.90
9790;DHT22;4934;50.852;8.098;2023-04-01T16:55:49;10.00;99.90
9790;DHT22;4934;50.852;8.098;2023-04-01T16:59:21;10.10;99.90
9790;DHT22;4934;50.852;8.098;2023-04-01T17:01:26;10.00;99.90
9790;DHT22;4934;50.852;8.098;2023-04-01T17:04:07;10.00;99.90
9790;DHT22;4934;50.852;8.098;2023-04-01T17:14:43;9.90;99.90
9790;DHT22;4934;50.852;8.098;2023-04-01T17:17:23;9.80;99.90
9790;DHT22;4934;50.852;8.098;2023-04-01T17:20:07;9.80;99.90
9790;DHT22;4934;50.852;8.098;2023-04-01T17:22:53;9.80;99.90
9790;DHT22;4934;50.852;8.098;2023-04-01T17:25:54;9.80;99.90
9790;DHT22;4934;50.852;8.098;2023-04-01T17:28:58;9.70;99.90
9790;DHT22;4934;50.852;8.098;2023-04-01T17:34:13;9.60;99.90
9790;DHT22;4934;50.852;8.098;2023-04-01T17:37:15;9.70;99.90
9790;DHT22;4934;50.852;8.098;2023-04-01T17:47:31;9.60;99.90
9790;DHT22;4934;50.852;8.098;2023-04-01T17:50:09;9.50;99.90
9790;DHT22;4934;50.852;8.098;2023-04-01T17:55:37;9.40;99.90
9790;DHT22;4934;50.852;8.098;2023-04-01T17:58:20;9.40;99.90
9790;DHT22;4934;50.852;8.098;2023-04-01T18:15:00;9.30;99.90
9790;DHT22;4934;50.852;8.098;2023-04-01T18:20:03;9.40;99.90
9790;DHT22;4934;50.852;8.098;2023-04-01T18:22:39;9.30;99.90
9790;DHT22;4934;50.852;8.098;2023-04-01T18:27:42;9.20;99.90
9790;DHT22;4934;50.852;8.098;2023-04-01T18:30:32;9.30;99.90
9790;DHT22;4934;50.852;8.098;2023-04-01T18:33:09;9.30;99.90
9790;DHT22;4934;50.852;8.098;2023-04-01T18:35:53;9.20;99.90
9790;DHT22;4934;50.852;8.098;2023-04-01T18:38:33;9.20;99.90
9790;DHT22;4934;50.852;8.098;2023-04-01T18:44:16;9.20;99.90
9790;DHT22;4934;50.852;8.098;2023-04-01T18:47:03;9.20;99.90
9790;DHT22;4934;50.852;8.098;2023-04-01T18:52:25;9.10;99.90
9790;DHT22;4934;50.852;8.098;2023-04-01T18:57:49;9.10;99.90
9790;DHT22;4934;50.852;8.098;2023-04-01T19:00:19;9.10;99.90
9790;DHT22;4934;50.852;8.098;2023-04-01T19:05:41;9.10;99.90
9790;DHT22;4934;50.852;8.098;2023-04-01T19:08:31;9.10;99.90
9790;DHT22;4934;50.852;8.098;2023-04-01T19:16:34;9.00;99.90
9790;DHT22;4934;50.852;8.098;2023-04-01T19:21:58;9.00;99.90
9790;DHT22;4934;50.852;8.098;2023-04-01T19:24:36;9.00;99.90
9790;DHT22;4934;50.852;8.098;2023-04-01T19:38:11;8.90;99.90
9790;DHT22;4934;50.852;8.098;2023-04-01T19:40:53;9.00;99.90
9790;DHT22;4934;50.852;8.098;2023-04-01T19:43:32;9.00;99.90
9790;DHT22;4934;50.852;8.098;2023-04-01T19:55:07;8.90;99.90
9790;DHT22;4934;50.852;8.098;2023-04-01T19:58:26;8.90;99.90
9790;DHT22;4934;50.852;8.098;2023-04-01T20:00:34;8.90;99.90
9790;DHT22;4934;50.852;8.098;2023-04-01T20:11:46;8.90;99.90
9790;DHT22;4934;50.852;8.098;2023-04-01T20:14:26;8.90;99.90
9790;DHT22;4934;50.852;8.098;2023-04-01T20:19:39;8.80;99.90
9790;DHT22;4934;50.852;8.098;2023-04-01T20:24:58;8.80;99.90
9790;DHT22;4934;50.852;8.098;2023-04-01T20:27:39;8.80;99.90
9790;DHT22;4934;50.852;8.098;2023-04-01T20:33:44;8.80;99.90
9790;DHT22;4934;50.852;8.098;2023-04-01T20:44:38;8.80;99.90
9790;DHT22;4934;50.852;8.098;2023-04-01T20:53:15;8.70;99.90
9790;DHT22;4934;50.852;8.098;2023-04-01T20:56:09;8.70;99.90
9790;DHT22;4934;50.852;8.098;2023-04-01T20:59:11;8.70;99.90
9790;DHT22;4934;50.852;8.098;2023-04-01T21:01:51;8.70;99.90
9790;DHT22;4934;50.852;8.098;2023-04-01T21:19:27;8.70;99.90
9790;DHT22;4934;50.852;8.098;2023-04-01T21:22:17;8.70;99.90
9790;DHT22;4934;50.852;8.098;2023-04-01T21:36:16;8.50;99.90
9790;DHT22;4934;50.852;8.098;2023-04-01T21:45:13;8.50;99.90
9790;DHT22;4934;50.852;8.098;2023-04-01T21:48:05;8.50;99.90
9790;DHT22;4934;50.852;8.098;2023-04-01T22:02:21;8.50;99.90
9790;DHT22;4934;50.852;8.098;2023-04-01T22:07:57;8.40;99.90
9790;DHT22;4934;50.852;8.098;2023-04-01T22:19:15;8.40;99.90
9790;DHT22;4934;50.852;8.098;2023-04-01T22:22:04;8.50;99.90
9790;DHT22;4934;50.852;8.098;2023-04-01T22:27:41;8.50;99.90
9790;DHT22;4934;50.852;8.098;2023-04-01T22:30:24;8.40;99.90
9790;DHT22;4934;50.852;8.098;2023-04-01T22:35:59;8.40;99.90
9790;DHT22;4934;50.852;8.098;2023-04-01T22:41:12;8.30;99.90
9790;DHT22;4934;50.852;8.098;2023-04-01T22:43:41;8.40;99.90
9790;DHT22;4934;50.852;8.098;2023-04-01T22:51:47;8.30;99.90
9790;DHT22;4934;50.852;8.098;2023-04-01T22:54:31;8.30;99.90
9790;DHT22;4934;50.852;8.098;2023-04-01T22:57:08;8.30;99.90
9790;DHT22;4934;50.852;8.098;2023-04-01T23:02:28;8.30;99.90
9790;DHT22;4934;50.852;8.098;2023-04-01T23:05:02;8.30;99.90
9790;DHT22;4934;50.852;8.098;2023-04-01T23:07:30;8.30;99.90
9790;DHT22;4934;50.852;8.098;2023-04-01T23:10:05;8.30;99.90
9790;DHT22;4934;50.852;8.098;2023-04-01T23:12:38;8.20;99.90
9790;DHT22;4934;50.852;8.098;2023-04-01T23:15:12;8.30;99.90
9790;DHT22;4934;50.852;8.098;2023-04-01T23:20:17;8.30;99.90
9790;DHT22;4934;50.852;8.098;2023-04-01T23:26:22;8.30;99.90
9790;DHT22;4934;50.852;8.098;2023-04-01T23:28:53;8.30;99.90
9790;DHT22;4934;50.852;8.098;2023-04-01T23:31:31;8.30;99.90
9790;DHT22;4934;50.852;8.098;2023-04-01T23:36:42;8.20;99.90
9790;DHT22;4934;50.852;8.098;2023-04-01T23:41:46;8.30;99.90
9790;DHT22;4934;50.852;8.098;2023-04-01T23:44:13;8.30;99.90
9790;DHT22;4934;50.852;8.098;2023-04-01T23:46:42;8.30;99.90
9790;DHT22;4934;50.852;8.098;2023-04-01T23:49:14;8.30;99.90
9790;DHT22;4934;50.852;8.098;2023-04-01T23:51:50;8.30;99.90
9790;DHT22;4934;50.852;8.098;2023-04-01T23:56:50;8.30;99.90
9790;DHT22;4934;50.852;8.098;2023-04-01T23:59:19;8.20;99.90
